createdAt,value
2019-01-12T00:01:15.869Z,5.50
2019-01-12T00:03:47.405Z,5.40
2019-01-12T00:06:30.446Z,5.50
2019-01-12T00:09:02.025Z,5.50
2019-01-12T00:11:45.703Z,5.50
2019-01-12T00:14:28.517Z,5.50
2019-01-12T00:16:59.882Z,5.50
2019-01-12T00:19:31.255Z,5.50
2019-01-12T00:22:02.703Z,5.50
2019-01-12T00:24:35.864Z,5.50
2019-01-12T00:27:20.262Z,5.50
2019-01-12T00:29:51.549Z,5.50
2019-01-12T00:32:22.941Z,5.50
2019-01-12T00:34:54.377Z,5.60
2019-01-12T00:37:25.738Z,5.50
2019-01-12T00:40:09.333Z,5.50
2019-01-12T00:42:40.723Z,5.60
2019-01-12T00:45:25.259Z,5.60
2019-01-12T00:48:08.556Z,5.60
2019-01-12T00:50:40.000Z,5.60
2019-01-12T00:53:11.381Z,5.60
2019-01-12T00:55:42.784Z,5.60
2019-01-12T00:58:15.112Z,5.60
2019-01-12T01:00:47.476Z,5.60
2019-01-12T01:03:18.828Z,5.60
2019-01-12T01:05:51.110Z,5.60
2019-01-12T01:08:34.073Z,5.60
2019-01-12T01:11:05.576Z,5.70
2019-01-12T01:13:36.861Z,5.70
2019-01-12T01:16:08.233Z,5.60
2019-01-12T01:18:51.629Z,5.70
2019-01-12T01:21:24.258Z,5.70
2019-01-12T01:23:55.939Z,5.70
2019-01-12T01:26:27.461Z,5.70
2019-01-12T01:29:09.069Z,5.70
2019-01-12T01:31:46.522Z,5.70
2019-01-12T01:34:17.989Z,5.70
2019-01-12T01:37:01.234Z,5.70
2019-01-12T01:39:32.671Z,5.70
2019-01-12T01:42:04.089Z,5.70
2019-01-12T01:44:35.377Z,5.70
2019-01-12T01:47:18.322Z,5.80
2019-01-12T01:49:49.693Z,5.80
2019-01-12T01:52:21.138Z,5.80
2019-01-12T01:54:52.881Z,5.80
2019-01-12T01:57:24.677Z,5.80
2019-01-12T01:59:55.981Z,5.80
2019-01-12T02:02:38.779Z,5.80
2019-01-12T02:05:10.134Z,5.80
2019-01-12T02:07:53.377Z,5.80
2019-01-12T02:10:36.959Z,5.80
2019-01-12T02:13:22.033Z,5.90
2019-01-12T02:15:53.438Z,5.90
2019-01-12T02:18:47.152Z,5.90
2019-01-12T02:21:18.632Z,5.90
2019-01-12T02:23:50.076Z,5.90
2019-01-12T02:26:33.410Z,5.90
2019-01-12T02:29:05.021Z,5.90
2019-01-12T02:31:36.361Z,5.90
2019-01-12T02:34:19.398Z,5.90
2019-01-12T02:37:02.313Z,6.00
2019-01-12T02:39:33.655Z,6.00
2019-01-12T02:42:05.014Z,6.00
2019-01-12T02:44:36.373Z,6.00
2019-01-12T02:47:07.759Z,6.00
2019-01-12T02:49:39.090Z,6.00
2019-01-12T02:52:29.599Z,6.00
2019-01-12T02:55:08.193Z,6.00
2019-01-12T02:57:34.036Z,6.00
2019-01-12T03:00:17.347Z,6.00
2019-01-12T03:02:48.828Z,6.00
2019-01-12T03:05:21.034Z,6.10
2019-01-12T03:07:53.263Z,6.10
2019-01-12T03:10:24.674Z,6.10
2019-01-12T03:12:56.045Z,6.10
2019-01-12T03:15:27.487Z,6.10
2019-01-12T03:17:58.878Z,6.10
2019-01-12T03:20:30.285Z,6.10
2019-01-12T03:23:01.670Z,6.10
2019-01-12T03:25:46.320Z,6.10
2019-01-12T03:28:17.657Z,6.10
2019-01-12T03:30:49.065Z,6.10
2019-01-12T03:33:20.518Z,6.10
2019-01-12T03:35:51.894Z,6.10
2019-01-12T03:38:35.475Z,6.10
2019-01-12T03:41:06.832Z,6.10
2019-01-12T03:43:38.198Z,6.10
2019-01-12T03:46:09.592Z,6.10
2019-01-12T03:48:52.470Z,6.10
2019-01-12T03:51:23.828Z,6.10
2019-01-12T03:53:55.198Z,6.10
2019-01-12T03:56:26.719Z,6.10
2019-01-12T03:59:09.501Z,6.10
2019-01-12T04:01:40.943Z,6.10
2019-01-12T04:04:12.314Z,6.10
2019-01-12T04:06:44.732Z,6.10
2019-01-12T04:09:16.264Z,6.10
2019-01-12T04:11:47.675Z,6.10
2019-01-12T04:14:18.944Z,6.00
2019-01-12T04:16:50.337Z,6.00
2019-01-12T04:19:21.688Z,6.10
2019-01-12T04:21:53.070Z,6.10
2019-01-12T04:24:24.428Z,6.10
2019-01-12T04:26:55.830Z,6.10
2019-01-12T04:29:27.179Z,6.10
2019-01-12T04:31:58.482Z,6.10
2019-01-12T04:34:29.916Z,6.10
2019-01-12T04:37:01.188Z,6.10
2019-01-12T04:39:32.481Z,6.10
2019-01-12T04:42:03.882Z,6.10
2019-01-12T04:44:46.763Z,6.10
2019-01-12T04:47:18.137Z,6.10
2019-01-12T04:49:49.411Z,6.10
2019-01-12T04:52:32.720Z,6.10
2019-01-12T04:55:04.386Z,6.10
2019-01-12T04:57:35.793Z,6.20
2019-01-12T05:00:09.031Z,6.20
2019-01-12T05:02:40.481Z,6.20
2019-01-12T05:05:11.845Z,6.20
2019-01-12T05:07:43.284Z,6.10
2019-01-12T05:10:15.629Z,6.20
2019-01-12T05:12:47.062Z,6.20
2019-01-12T05:15:18.457Z,6.20
2019-01-12T05:17:49.857Z,6.20
2019-01-12T05:20:33.668Z,6.20
2019-01-12T05:23:05.126Z,6.20
2019-01-12T05:25:36.478Z,6.20
2019-01-12T05:28:07.881Z,6.20
2019-01-12T05:30:39.192Z,6.20
2019-01-12T05:33:10.584Z,6.20
2019-01-12T05:35:41.877Z,6.20
2019-01-12T05:38:13.313Z,6.20
2019-01-12T05:40:44.714Z,6.20
2019-01-12T05:43:16.085Z,6.20
2019-01-12T05:45:47.438Z,6.20
2019-01-12T05:48:18.809Z,6.20
2019-01-12T05:50:50.178Z,6.20
2019-01-12T05:53:21.404Z,6.20
2019-01-12T05:55:57.061Z,6.30
2019-01-12T05:58:26.021Z,6.30
2019-01-12T06:00:57.378Z,6.30
2019-01-12T06:03:28.872Z,6.30
2019-01-12T06:06:01.202Z,6.30
2019-01-12T06:08:32.659Z,6.20
2019-01-12T06:11:04.878Z,6.30
2019-01-12T06:13:36.298Z,6.30
2019-01-12T06:16:07.644Z,6.30
2019-01-12T06:18:39.075Z,6.30
2019-01-12T06:21:10.348Z,6.30
2019-01-12T06:23:51.942Z,6.30
2019-01-12T06:26:23.323Z,6.30
2019-01-12T06:28:54.540Z,6.30
2019-01-12T06:31:25.928Z,6.30
2019-01-12T06:34:09.608Z,6.30
2019-01-12T06:36:41.238Z,6.30
2019-01-12T06:39:12.744Z,6.30
2019-01-12T06:41:56.108Z,6.30
2019-01-12T06:44:27.429Z,6.30
2019-01-12T06:47:10.453Z,6.30
2019-01-12T06:49:41.869Z,6.30
2019-01-12T06:52:24.631Z,6.30
2019-01-12T06:54:56.045Z,6.30
2019-01-12T06:57:37.542Z,6.20
2019-01-12T07:00:11.981Z,6.20
2019-01-12T07:02:43.375Z,6.20
2019-01-12T07:05:14.773Z,6.20
2019-01-12T07:07:46.268Z,6.20
2019-01-12T07:10:17.651Z,6.20
2019-01-12T07:12:49.029Z,6.20
2019-01-12T07:15:20.412Z,6.20
2019-01-12T07:17:51.689Z,6.20
2019-01-12T07:20:23.088Z,6.20
2019-01-12T07:22:54.389Z,6.20
2019-01-12T07:25:25.707Z,6.20
2019-01-12T07:27:57.041Z,6.20
2019-01-12T07:30:28.389Z,6.20
2019-01-12T07:32:59.817Z,6.20
2019-01-12T07:35:31.220Z,6.20
2019-01-12T07:38:02.576Z,6.20
2019-01-12T07:40:33.898Z,6.20
2019-01-12T07:43:05.241Z,6.20
2019-01-12T07:45:36.715Z,6.20
2019-01-12T07:48:08.062Z,6.20
2019-01-12T07:50:39.451Z,6.20
2019-01-12T07:53:10.804Z,6.30
2019-01-12T07:55:43.837Z,6.30
2019-01-12T07:58:15.561Z,6.30
2019-01-12T08:00:47.166Z,6.30
2019-01-12T08:03:18.566Z,6.30
2019-01-12T08:05:49.988Z,6.30
2019-01-12T08:08:22.919Z,6.30
2019-01-12T08:10:54.341Z,6.30
2019-01-12T08:13:27.568Z,6.30
2019-01-12T08:15:59.100Z,6.30
2019-01-12T08:18:30.448Z,6.30
2019-01-12T08:21:01.833Z,6.30
2019-01-12T08:23:33.259Z,6.30
2019-01-12T08:26:07.701Z,6.40
2019-01-12T08:28:39.178Z,6.40
2019-01-12T08:31:10.574Z,6.40
2019-01-12T08:33:41.924Z,6.40
2019-01-12T08:36:15.446Z,6.40
2019-01-12T08:38:46.837Z,6.40
2019-01-12T08:41:18.235Z,6.50
2019-01-12T08:43:49.533Z,6.50
2019-01-12T08:46:20.948Z,6.50
2019-01-12T08:48:52.531Z,6.50
2019-01-12T08:51:23.988Z,6.50
2019-01-12T08:53:55.292Z,6.50
2019-01-12T08:56:26.728Z,6.60
2019-01-12T08:58:58.075Z,6.60
2019-01-12T09:01:29.610Z,6.60
2019-01-12T09:04:01.056Z,6.60
2019-01-12T09:06:32.725Z,6.60
2019-01-12T09:09:06.957Z,6.60
2019-01-12T09:11:38.357Z,6.70
2019-01-12T09:14:10.581Z,6.70
2019-01-12T09:16:41.950Z,6.70
2019-01-12T09:19:13.288Z,6.70
2019-01-12T09:21:44.700Z,6.70
2019-01-12T09:24:16.067Z,6.70
2019-01-12T09:26:47.592Z,6.80
2019-01-12T09:29:18.954Z,6.70
2019-01-12T09:31:50.352Z,6.70
2019-01-12T09:34:21.733Z,6.80
2019-01-12T09:36:53.228Z,6.80
2019-01-12T09:39:24.657Z,6.80
2019-01-12T09:41:56.097Z,6.80
2019-01-12T09:44:27.490Z,6.70
2019-01-12T09:46:58.888Z,6.80
2019-01-12T09:49:30.330Z,6.80
2019-01-12T09:52:01.766Z,6.80
2019-01-12T09:54:33.485Z,6.80
2019-01-12T09:57:04.982Z,6.80
2019-01-12T09:59:36.369Z,6.90
2019-01-12T10:02:07.885Z,6.90
2019-01-12T10:04:39.316Z,6.90
2019-01-12T10:07:10.709Z,6.90
2019-01-12T10:09:42.132Z,6.90
2019-01-12T10:12:13.509Z,6.90
2019-01-12T10:14:46.728Z,6.80
2019-01-12T10:17:18.040Z,6.90
2019-01-12T10:19:49.388Z,6.90
2019-01-12T10:22:20.837Z,6.90
2019-01-12T10:24:52.301Z,7.00
2019-01-12T10:27:23.726Z,7.00
2019-01-12T10:29:55.062Z,7.00
2019-01-12T10:32:26.553Z,7.10
2019-01-12T10:34:57.917Z,7.00
2019-01-12T10:37:29.405Z,7.10
2019-01-12T10:40:00.769Z,7.10
2019-01-12T10:42:32.131Z,7.10
2019-01-12T10:45:04.740Z,7.10
2019-01-12T10:47:36.234Z,7.10
2019-01-12T10:50:11.160Z,7.20
2019-01-12T10:52:42.560Z,7.10
2019-01-12T10:55:13.948Z,7.10
2019-01-12T10:57:45.328Z,7.10
2019-01-12T11:00:21.920Z,7.10
2019-01-12T11:02:53.997Z,7.10
2019-01-12T11:05:26.688Z,7.00
2019-01-12T11:07:58.139Z,7.00
2019-01-12T11:10:30.334Z,7.00
2019-01-12T11:13:02.723Z,7.00
2019-01-12T11:15:35.037Z,7.00
2019-01-12T11:18:06.706Z,7.00
2019-01-12T11:20:38.181Z,7.00
2019-01-12T11:23:09.620Z,7.00
2019-01-12T11:25:43.039Z,7.00
2019-01-12T11:28:14.006Z,7.00
2019-01-12T11:30:46.395Z,7.00
2019-01-12T11:33:17.752Z,6.90
2019-01-12T11:35:49.161Z,6.90
2019-01-12T11:38:21.522Z,7.00
2019-01-12T11:40:54.918Z,7.00
2019-01-12T11:43:26.317Z,7.00
2019-01-12T11:45:57.704Z,7.00
2019-01-12T11:48:29.114Z,7.00
2019-01-12T11:51:12.080Z,6.90
2019-01-12T11:53:45.189Z,7.00
2019-01-12T11:56:16.749Z,6.90
2019-01-12T11:58:48.508Z,7.00
2019-01-12T12:01:19.975Z,7.00
2019-01-12T12:03:51.437Z,7.00
2019-01-12T12:06:22.789Z,7.00
2019-01-12T12:08:54.192Z,7.00
2019-01-12T12:11:25.532Z,7.00
2019-01-12T12:13:56.904Z,7.00
2019-01-12T12:16:28.293Z,7.00
2019-01-12T12:18:59.598Z,7.00
2019-01-12T12:21:30.968Z,7.00
2019-01-12T12:24:02.346Z,7.00
2019-01-12T12:26:33.688Z,7.00
2019-01-12T12:29:05.206Z,7.00
2019-01-12T12:31:36.569Z,7.00
2019-01-12T12:34:07.990Z,7.00
2019-01-12T12:36:39.354Z,7.00
2019-01-12T12:39:10.805Z,7.00
2019-01-12T12:41:42.106Z,7.00
2019-01-12T12:44:13.528Z,7.00
2019-01-12T12:46:44.929Z,7.10
2019-01-12T12:49:16.189Z,7.00
2019-01-12T12:51:47.671Z,7.00
2019-01-12T12:54:19.410Z,7.10
2019-01-12T12:56:50.768Z,7.10
2019-01-12T12:59:22.143Z,7.10
2019-01-12T13:01:53.495Z,7.10
2019-01-12T13:04:24.978Z,7.20
2019-01-12T13:06:56.336Z,7.20
2019-01-12T13:09:27.768Z,7.20
2019-01-12T13:11:59.156Z,7.20
2019-01-12T13:14:30.581Z,7.20
2019-01-12T13:17:02.036Z,7.20
2019-01-12T13:19:33.480Z,7.30
2019-01-12T13:22:09.112Z,7.20
2019-01-12T13:24:40.649Z,7.30
2019-01-12T13:27:13.042Z,7.20
2019-01-12T13:29:46.191Z,7.30
2019-01-12T13:32:17.650Z,7.30
2019-01-12T13:34:49.073Z,7.30
2019-01-12T13:37:20.653Z,7.30
2019-01-12T13:39:52.313Z,7.30
2019-01-12T13:42:23.661Z,7.30
2019-01-12T13:44:55.096Z,7.20
2019-01-12T13:47:26.491Z,7.30
2019-01-12T13:49:57.924Z,7.30
2019-01-12T13:52:29.484Z,7.30
2019-01-12T13:55:06.248Z,7.30
2019-01-12T13:57:37.632Z,7.30
2019-01-12T14:00:18.919Z,7.30
2019-01-12T14:02:50.320Z,7.30
2019-01-12T14:05:21.830Z,7.30
2019-01-12T14:07:56.619Z,7.30
2019-01-12T14:10:26.429Z,7.30
2019-01-12T14:12:57.913Z,7.20
2019-01-12T14:15:30.312Z,7.20
2019-01-12T14:18:01.813Z,7.20
2019-01-12T14:20:39.089Z,7.20
2019-01-12T14:23:12.815Z,7.20
2019-01-12T14:25:44.469Z,7.20
2019-01-12T14:28:15.901Z,7.10
2019-01-12T14:30:47.265Z,7.10
2019-01-12T14:33:18.609Z,7.10
2019-01-12T14:35:49.976Z,7.10
2019-01-12T14:38:21.265Z,7.00
2019-01-12T14:40:52.676Z,7.00
2019-01-12T14:43:24.032Z,7.00
2019-01-12T14:45:55.457Z,7.00
2019-01-12T14:48:26.808Z,7.00
2019-01-12T14:50:58.202Z,7.00
2019-01-12T14:53:29.561Z,7.00
2019-01-12T14:56:01.022Z,6.90
2019-01-12T14:58:32.646Z,6.90
2019-01-12T15:01:04.029Z,6.90
2019-01-12T15:03:35.477Z,6.90
2019-01-12T15:06:08.344Z,6.90
2019-01-12T15:08:39.701Z,6.90
2019-01-12T15:11:11.214Z,6.90
2019-01-12T15:13:42.573Z,6.90
2019-01-12T15:16:13.971Z,6.90
2019-01-12T15:18:45.432Z,6.90
2019-01-12T15:21:16.804Z,6.90
2019-01-12T15:23:48.077Z,6.90
2019-01-12T15:26:19.453Z,6.90
2019-01-12T15:28:50.825Z,6.90
2019-01-12T15:31:22.206Z,6.80
2019-01-12T15:33:53.545Z,6.80
2019-01-12T15:36:24.918Z,6.80
2019-01-12T15:38:56.282Z,6.80
2019-01-12T15:41:27.705Z,6.80
2019-01-12T15:43:58.981Z,6.80
2019-01-12T15:46:30.360Z,6.70
2019-01-12T15:49:01.728Z,6.70
2019-01-12T15:51:33.036Z,6.70
2019-01-12T15:54:04.426Z,6.70
2019-01-12T15:56:35.846Z,6.60
2019-01-12T15:59:07.193Z,6.60
2019-01-12T16:01:38.580Z,6.60
2019-01-12T16:04:09.933Z,6.60
2019-01-12T16:06:41.265Z,6.60
2019-01-12T16:09:12.625Z,6.60
2019-01-12T16:11:44.097Z,6.60
2019-01-12T16:14:15.466Z,6.60
2019-01-12T16:16:46.798Z,6.60
2019-01-12T16:19:23.474Z,6.60
2019-01-12T16:21:57.013Z,6.60
2019-01-12T16:24:28.358Z,6.50
2019-01-12T16:26:59.756Z,6.50
2019-01-12T16:29:31.126Z,6.50
2019-01-12T16:32:02.496Z,6.50
2019-01-12T16:34:33.851Z,6.50
2019-01-12T16:37:05.265Z,6.50
2019-01-12T16:39:36.551Z,6.50
2019-01-12T16:42:08.014Z,6.50
2019-01-12T16:44:39.359Z,6.50
2019-01-12T16:47:10.773Z,6.50
2019-01-12T16:49:42.135Z,6.50
2019-01-12T16:52:13.561Z,6.50
2019-01-12T16:54:44.849Z,6.50
2019-01-12T16:57:18.666Z,6.40
2019-01-12T16:59:50.017Z,6.50
2019-01-12T17:02:21.402Z,6.50
2019-01-12T17:04:52.846Z,6.50
2019-01-12T17:07:24.242Z,6.50
2019-01-12T17:09:55.597Z,6.50
2019-01-12T17:12:27.648Z,6.40
2019-01-12T17:14:59.004Z,6.40
2019-01-12T17:17:30.436Z,6.40
2019-01-12T17:20:01.968Z,6.40
2019-01-12T17:22:33.388Z,6.40
2019-01-12T17:25:04.912Z,6.40
2019-01-12T17:27:36.233Z,6.40
2019-01-12T17:30:10.883Z,6.40
2019-01-12T17:32:42.316Z,6.40
2019-01-12T17:35:14.464Z,6.40
2019-01-12T17:37:47.505Z,6.40
2019-01-12T17:40:18.873Z,6.40
2019-01-12T17:42:50.446Z,6.40
2019-01-12T17:45:23.376Z,6.40
2019-01-12T17:47:54.936Z,6.40
2019-01-12T17:50:27.461Z,6.40
2019-01-12T17:52:58.941Z,6.50
2019-01-12T17:55:30.293Z,6.50
2019-01-12T17:58:01.727Z,6.50
2019-01-12T18:00:50.330Z,6.50
2019-01-12T18:03:21.829Z,6.40
2019-01-12T18:05:53.216Z,6.40
2019-01-12T18:08:24.620Z,6.50
2019-01-12T18:10:55.972Z,6.40
2019-01-12T18:13:27.382Z,6.50
2019-01-12T18:15:58.740Z,6.50
2019-01-12T18:18:30.118Z,6.40
2019-01-12T18:21:01.473Z,6.40
2019-01-12T18:23:33.109Z,6.40
2019-01-12T18:26:15.924Z,6.50
2019-01-12T18:28:51.451Z,6.50
2019-01-12T18:31:20.888Z,6.50
2019-01-12T18:33:52.648Z,6.50
2019-01-12T18:36:24.311Z,6.50
2019-01-12T18:38:56.085Z,6.50
2019-01-12T18:41:27.750Z,6.50
2019-01-12T18:43:59.416Z,6.50
2019-01-12T18:46:31.023Z,6.50
2019-01-12T18:49:02.705Z,6.50
2019-01-12T18:51:34.311Z,6.50
2019-01-12T18:54:05.930Z,6.50
2019-01-12T18:56:37.996Z,6.50
2019-01-12T18:59:10.626Z,6.40
2019-01-12T19:01:42.199Z,6.50
2019-01-12T19:04:25.378Z,6.50
2019-01-12T19:06:56.998Z,6.50
2019-01-12T19:09:28.623Z,6.40
2019-01-12T19:12:00.263Z,6.40
2019-01-12T19:14:43.208Z,6.40
2019-01-12T19:17:14.816Z,6.40
2019-01-12T19:19:46.550Z,6.40
2019-01-12T19:22:30.013Z,6.40
2019-01-12T19:25:01.745Z,6.40
2019-01-12T19:27:33.347Z,6.40
2019-01-12T19:30:16.337Z,6.50
2019-01-12T19:32:47.998Z,6.40
2019-01-12T19:35:30.976Z,6.40
2019-01-12T19:38:02.579Z,6.40
2019-01-12T19:40:34.193Z,6.40
2019-01-12T19:43:05.818Z,6.40
2019-01-12T19:45:37.472Z,6.40
2019-01-12T19:48:09.109Z,6.40
2019-01-12T19:50:52.524Z,6.50
2019-01-12T19:53:24.121Z,6.50
2019-01-12T19:55:56.088Z,6.50
2019-01-12T19:58:39.782Z,6.50
2019-01-12T20:01:11.250Z,6.50
2019-01-12T20:03:42.585Z,6.50
2019-01-12T20:06:17.108Z,6.50
2019-01-12T20:08:59.287Z,6.50
2019-01-12T20:11:30.685Z,6.50
2019-01-12T20:14:13.840Z,6.50
2019-01-12T20:16:46.521Z,6.50
2019-01-12T20:19:17.869Z,6.50
2019-01-12T20:22:01.310Z,6.50
2019-01-12T20:24:47.405Z,6.50
2019-01-12T20:27:33.978Z,6.50
2019-01-12T20:30:19.247Z,6.60
2019-01-12T20:33:18.037Z,6.60
2019-01-12T20:36:27.928Z,6.60
2019-01-12T20:39:28.149Z,6.60
2019-01-12T20:42:34.850Z,6.60
2019-01-12T20:45:22.982Z,6.60
2019-01-12T20:48:22.206Z,6.60
2019-01-12T20:51:05.428Z,6.60
2019-01-12T20:54:02.344Z,6.60
2019-01-12T20:57:07.997Z,6.60
2019-01-12T21:00:23.268Z,6.60
2019-01-12T21:03:17.733Z,6.60
2019-01-12T21:06:01.609Z,6.60
2019-01-12T21:09:09.748Z,6.60
2019-01-12T21:12:22.862Z,6.60
2019-01-12T21:15:15.111Z,6.60
2019-01-12T21:17:46.469Z,6.60
2019-01-12T21:20:18.050Z,6.60
2019-01-12T21:23:01.265Z,6.60
2019-01-12T21:25:42.875Z,6.60
2019-01-12T21:28:14.204Z,6.60
2019-01-12T21:30:45.608Z,6.50
2019-01-12T21:33:16.885Z,6.50
2019-01-12T21:36:00.621Z,6.50
2019-01-12T21:38:32.211Z,6.50
2019-01-12T21:41:03.652Z,6.50
2019-01-12T21:43:36.601Z,6.50
2019-01-12T21:46:08.019Z,6.60
2019-01-12T21:48:51.138Z,6.50
2019-01-12T21:51:22.514Z,6.50
2019-01-12T21:53:53.905Z,6.60
2019-01-12T21:56:25.357Z,6.60
2019-01-12T21:58:56.942Z,6.60
2019-01-12T22:01:28.310Z,6.60
2019-01-12T22:03:59.643Z,6.60
2019-01-12T22:06:31.001Z,6.60
2019-01-12T22:09:02.340Z,6.50
2019-01-12T22:11:33.937Z,6.60
2019-01-12T22:14:05.588Z,6.50
2019-01-12T22:16:48.693Z,6.50
2019-01-12T22:19:19.959Z,6.50
2019-01-12T22:21:51.274Z,6.50
2019-01-12T22:24:22.626Z,6.50
2019-01-12T22:26:54.024Z,6.50
2019-01-12T22:29:25.460Z,6.50
2019-01-12T22:32:08.492Z,6.50
2019-01-12T22:34:39.944Z,6.50
2019-01-12T22:37:11.345Z,6.50
2019-01-12T22:39:42.731Z,6.50
2019-01-12T22:42:14.094Z,6.50
2019-01-12T22:44:45.449Z,6.50
2019-01-12T22:47:28.970Z,6.50
2019-01-12T22:50:00.322Z,6.50
2019-01-12T22:52:31.689Z,6.50
2019-01-12T22:55:02.959Z,6.50
2019-01-12T22:57:34.340Z,6.50
2019-01-12T23:00:30.992Z,6.50
2019-01-12T23:03:02.476Z,6.50
2019-01-12T23:05:44.057Z,6.60
2019-01-12T23:08:15.517Z,6.60
2019-01-12T23:10:59.099Z,6.50
2019-01-12T23:13:30.556Z,6.50
2019-01-12T23:16:12.080Z,6.50
2019-01-12T23:18:43.469Z,6.50
2019-01-12T23:21:26.645Z,6.60
2019-01-12T23:23:58.238Z,6.60
2019-01-12T23:26:48.726Z,6.60
2019-01-12T23:29:20.214Z,6.60
2019-01-12T23:31:51.598Z,6.60
2019-01-12T23:34:22.999Z,6.60
2019-01-12T23:37:13.457Z,6.60
2019-01-12T23:39:57.141Z,6.60
2019-01-12T23:42:28.476Z,6.60
2019-01-12T23:44:59.850Z,6.60
2019-01-12T23:47:41.361Z,6.60
2019-01-12T23:50:13.034Z,6.60
2019-01-12T23:52:44.408Z,6.60
2019-01-12T23:55:15.824Z,6.60
2019-01-12T23:57:58.477Z,6.60
